sensor_id;sensor_type;location;lat;lon;timestamp;P1;durP1;ratioP1;P2;durP2;ratioP2
39256;SDS011;67272;48.066;11.038;2023-10-31T00:00:36;0.70;;;0.60;;
39256;SDS011;67272;48.066;11.038;2023-10-31T00:03:02;0.80;;;0.80;;
39256;SDS011;67272;48.066;11.038;2023-10-31T00:05:31;1.57;;;0.77;;
39256;SDS011;67272;48.066;11.038;2023-10-31T00:07:58;0.70;;;0.70;;
39256;SDS011;67272;48.066;11.038;2023-10-31T00:10:24;0.70;;;0.70;;
39256;SDS011;67272;48.066;11.038;2023-10-31T00:12:50;0.80;;;0.80;;
39256;SDS011;67272;48.066;11.038;2023-10-31T00:15:17;0.80;;;0.80;;
39256;SDS011;67272;48.066;11.038;2023-10-31T00:17:46;0.73;;;0.73;;
39256;SDS011;67272;48.066;11.038;2023-10-31T00:20:18;0.70;;;0.70;;
39256;SDS011;67272;48.066;11.038;2023-10-31T00:22:49;1.60;;;0.70;;
39256;SDS011;67272;48.066;11.038;2023-10-31T00:25:18;0.70;;;0.70;;
39256;SDS011;67272;48.066;11.038;2023-10-31T00:27:45;0.53;;;0.53;;
39256;SDS011;67272;48.066;11.038;2023-10-31T00:30:14;0.67;;;0.67;;
39256;SDS011;67272;48.066;11.038;2023-10-31T00:32:47;0.70;;;0.70;;
39256;SDS011;67272;48.066;11.038;2023-10-31T00:35:20;1.07;;;0.70;;
39256;SDS011;67272;48.066;11.038;2023-10-31T00:37:49;0.60;;;0.60;;
39256;SDS011;67272;48.066;11.038;2023-10-31T00:40:16;0.60;;;0.60;;
39256;SDS011;67272;48.066;11.038;2023-10-31T00:42:43;0.80;;;0.80;;
39256;SDS011;67272;48.066;11.038;2023-10-31T00:45:12;0.50;;;0.50;;
39256;SDS011;67272;48.066;11.038;2023-10-31T00:47:41;0.50;;;0.50;;
39256;SDS011;67272;48.066;11.038;2023-10-31T00:50:07;0.97;;;0.60;;
39256;SDS011;67272;48.066;11.038;2023-10-31T00:52:34;0.50;;;0.50;;
39256;SDS011;67272;48.066;11.038;2023-10-31T00:55:01;0.50;;;0.50;;
39256;SDS011;67272;48.066;11.038;2023-10-31T00:57:39;0.57;;;0.57;;
39256;SDS011;67272;48.066;11.038;2023-10-31T01:00:06;0.60;;;0.60;;
39256;SDS011;67272;48.066;11.038;2023-10-31T01:02:37;0.50;;;0.50;;
39256;SDS011;67272;48.066;11.038;2023-10-31T01:05:03;0.50;;;0.50;;
39256;SDS011;67272;48.066;11.038;2023-10-31T01:07:30;0.73;;;0.47;;
39256;SDS011;67272;48.066;11.038;2023-10-31T01:09:56;0.50;;;0.50;;
39256;SDS011;67272;48.066;11.038;2023-10-31T01:12:23;0.67;;;0.50;;
39256;SDS011;67272;48.066;11.038;2023-10-31T01:15:06;0.60;;;0.60;;
39256;SDS011;67272;48.066;11.038;2023-10-31T01:17:36;0.40;;;0.40;;
39256;SDS011;67272;48.066;11.038;2023-10-31T01:20:05;0.60;;;0.60;;
39256;SDS011;67272;48.066;11.038;2023-10-31T01:22:32;0.40;;;0.40;;
39256;SDS011;67272;48.066;11.038;2023-10-31T01:25:02;0.43;;;0.43;;
39256;SDS011;67272;48.066;11.038;2023-10-31T01:27:35;0.50;;;0.50;;
39256;SDS011;67272;48.066;11.038;2023-10-31T01:30:01;0.40;;;0.40;;
39256;SDS011;67272;48.066;11.038;2023-10-31T01:32:28;0.43;;;0.43;;
39256;SDS011;67272;48.066;11.038;2023-10-31T01:34:55;0.50;;;0.50;;
39256;SDS011;67272;48.066;11.038;2023-10-31T01:37:22;0.50;;;0.50;;
39256;SDS011;67272;48.066;11.038;2023-10-31T01:39:48;0.73;;;0.50;;
39256;SDS011;67272;48.066;11.038;2023-10-31T01:42:15;0.50;;;0.50;;
39256;SDS011;67272;48.066;11.038;2023-10-31T01:44:41;0.87;;;0.50;;
39256;SDS011;67272;48.066;11.038;2023-10-31T01:47:14;1.90;;;0.70;;
39256;SDS011;67272;48.066;11.038;2023-10-31T01:49:43;0.67;;;0.50;;
39256;SDS011;67272;48.066;11.038;2023-10-31T01:52:10;0.43;;;0.43;;
39256;SDS011;67272;48.066;11.038;2023-10-31T01:54:39;0.53;;;0.50;;
39256;SDS011;67272;48.066;11.038;2023-10-31T01:57:09;0.40;;;0.40;;
39256;SDS011;67272;48.066;11.038;2023-10-31T01:59:35;0.50;;;0.50;;
39256;SDS011;67272;48.066;11.038;2023-10-31T02:02:02;0.50;;;0.50;;
39256;SDS011;67272;48.066;11.038;2023-10-31T02:04:30;1.80;;;0.43;;
39256;SDS011;67272;48.066;11.038;2023-10-31T02:06:56;0.50;;;0.50;;
39256;SDS011;67272;48.066;11.038;2023-10-31T02:09:22;0.40;;;0.40;;
39256;SDS011;67272;48.066;11.038;2023-10-31T02:11:51;0.43;;;0.43;;
39256;SDS011;67272;48.066;11.038;2023-10-31T02:14:18;0.60;;;0.40;;
39256;SDS011;67272;48.066;11.038;2023-10-31T02:16:47;0.50;;;0.50;;
39256;SDS011;67272;48.066;11.038;2023-10-31T02:19:23;0.43;;;0.43;;
39256;SDS011;67272;48.066;11.038;2023-10-31T02:21:50;0.50;;;0.50;;
39256;SDS011;67272;48.066;11.038;2023-10-31T02:24:16;0.47;;;0.47;;
39256;SDS011;67272;48.066;11.038;2023-10-31T02:26:43;0.43;;;0.43;;
39256;SDS011;67272;48.066;11.038;2023-10-31T02:29:12;0.47;;;0.47;;
39256;SDS011;67272;48.066;11.038;2023-10-31T02:31:41;0.40;;;0.40;;
39256;SDS011;67272;48.066;11.038;2023-10-31T02:34:08;0.70;;;0.40;;
39256;SDS011;67272;48.066;11.038;2023-10-31T02:36:34;0.43;;;0.43;;
39256;SDS011;67272;48.066;11.038;2023-10-31T02:39:00;0.40;;;0.40;;
39256;SDS011;67272;48.066;11.038;2023-10-31T02:41:27;0.57;;;0.50;;
39256;SDS011;67272;48.066;11.038;2023-10-31T02:43:54;0.50;;;0.50;;
39256;SDS011;67272;48.066;11.038;2023-10-31T02:46:20;0.77;;;0.50;;
39256;SDS011;67272;48.066;11.038;2023-10-31T02:48:50;0.50;;;0.50;;
39256;SDS011;67272;48.066;11.038;2023-10-31T02:51:16;0.50;;;0.50;;
39256;SDS011;67272;48.066;11.038;2023-10-31T02:53:46;0.40;;;0.40;;
39256;SDS011;67272;48.066;11.038;2023-10-31T02:56:15;0.67;;;0.50;;
39256;SDS011;67272;48.066;11.038;2023-10-31T02:58:41;0.50;;;0.50;;
39256;SDS011;67272;48.066;11.038;2023-10-31T03:01:07;0.50;;;0.50;;
39256;SDS011;67272;48.066;11.038;2023-10-31T03:03:33;0.67;;;0.50;;
39256;SDS011;67272;48.066;11.038;2023-10-31T03:05:59;0.60;;;0.60;;
39256;SDS011;67272;48.066;11.038;2023-10-31T03:08:25;0.63;;;0.60;;
39256;SDS011;67272;48.066;11.038;2023-10-31T03:10:51;0.90;;;0.60;;
39256;SDS011;67272;48.066;11.038;2023-10-31T03:13:23;0.70;;;0.60;;
39256;SDS011;67272;48.066;11.038;2023-10-31T03:15:53;0.83;;;0.60;;
39256;SDS011;67272;48.066;11.038;2023-10-31T03:18:23;1.27;;;0.60;;
39256;SDS011;67272;48.066;11.038;2023-10-31T03:20:49;0.63;;;0.50;;
39256;SDS011;67272;48.066;11.038;2023-10-31T03:23:15;0.60;;;0.60;;
39256;SDS011;67272;48.066;11.038;2023-10-31T03:25:51;0.60;;;0.60;;
39256;SDS011;67272;48.066;11.038;2023-10-31T03:28:19;0.50;;;0.50;;
39256;SDS011;67272;48.066;11.038;2023-10-31T03:30:49;0.80;;;0.60;;
39256;SDS011;67272;48.066;11.038;2023-10-31T03:33:19;0.50;;;0.50;;
39256;SDS011;67272;48.066;11.038;2023-10-31T03:35:48;0.50;;;0.50;;
39256;SDS011;67272;48.066;11.038;2023-10-31T03:38:14;1.33;;;0.70;;
39256;SDS011;67272;48.066;11.038;2023-10-31T03:40:41;0.60;;;0.60;;
39256;SDS011;67272;48.066;11.038;2023-10-31T03:43:15;0.60;;;0.60;;
39256;SDS011;67272;48.066;11.038;2023-10-31T03:45:41;0.50;;;0.50;;
39256;SDS011;67272;48.066;11.038;2023-10-31T03:48:08;0.63;;;0.63;;
39256;SDS011;67272;48.066;11.038;2023-10-31T03:50:37;0.73;;;0.70;;
39256;SDS011;67272;48.066;11.038;2023-10-31T03:53:10;1.97;;;0.80;;
39256;SDS011;67272;48.066;11.038;2023-10-31T03:55:36;0.90;;;0.67;;
39256;SDS011;67272;48.066;11.038;2023-10-31T03:58:03;0.60;;;0.60;;
39256;SDS011;67272;48.066;11.038;2023-10-31T04:00:34;2.07;;;0.90;;
39256;SDS011;67272;48.066;11.038;2023-10-31T04:03:03;0.80;;;0.70;;
39256;SDS011;67272;48.066;11.038;2023-10-31T04:05:33;0.93;;;0.60;;
39256;SDS011;67272;48.066;11.038;2023-10-31T04:08:02;0.80;;;0.80;;
39256;SDS011;67272;48.066;11.038;2023-10-31T04:10:31;1.27;;;0.80;;
39256;SDS011;67272;48.066;11.038;2023-10-31T04:12:58;1.00;;;0.90;;
39256;SDS011;67272;48.066;11.038;2023-10-31T04:15:25;0.83;;;0.80;;
39256;SDS011;67272;48.066;11.038;2023-10-31T04:17:51;1.03;;;0.83;;
39256;SDS011;67272;48.066;11.038;2023-10-31T04:20:23;1.07;;;0.90;;
39256;SDS011;67272;48.066;11.038;2023-10-31T04:22:50;1.07;;;0.80;;
39256;SDS011;67272;48.066;11.038;2023-10-31T04:25:19;0.97;;;0.97;;
39256;SDS011;67272;48.066;11.038;2023-10-31T04:27:46;0.90;;;0.80;;
39256;SDS011;67272;48.066;11.038;2023-10-31T04:30:15;0.80;;;0.80;;
39256;SDS011;67272;48.066;11.038;2023-10-31T04:32:51;0.80;;;0.80;;
39256;SDS011;67272;48.066;11.038;2023-10-31T04:35:17;0.87;;;0.83;;
39256;SDS011;67272;48.066;11.038;2023-10-31T04:37:46;0.80;;;0.80;;
39256;SDS011;67272;48.066;11.038;2023-10-31T04:40:13;1.03;;;0.80;;
39256;SDS011;67272;48.066;11.038;2023-10-31T04:42:39;1.47;;;0.77;;
39256;SDS011;67272;48.066;11.038;2023-10-31T04:45:06;2.63;;;0.90;;
39256;SDS011;67272;48.066;11.038;2023-10-31T04:47:33;2.03;;;1.00;;
39256;SDS011;67272;48.066;11.038;2023-10-31T04:50:09;1.47;;;0.83;;
39256;SDS011;67272;48.066;11.038;2023-10-31T04:52:35;1.10;;;0.90;;
39256;SDS011;67272;48.066;11.038;2023-10-31T04:55:02;1.73;;;0.90;;
39256;SDS011;67272;48.066;11.038;2023-10-31T04:57:28;1.07;;;0.80;;
39256;SDS011;67272;48.066;11.038;2023-10-31T04:59:54;3.37;;;1.23;;
39256;SDS011;67272;48.066;11.038;2023-10-31T05:02:23;1.00;;;0.90;;
39256;SDS011;67272;48.066;11.038;2023-10-31T05:04:49;1.60;;;0.93;;
39256;SDS011;67272;48.066;11.038;2023-10-31T05:07:19;2.37;;;1.10;;
39256;SDS011;67272;48.066;11.038;2023-10-31T05:09:45;1.10;;;1.00;;
39256;SDS011;67272;48.066;11.038;2023-10-31T05:12:12;1.73;;;0.80;;
39256;SDS011;67272;48.066;11.038;2023-10-31T05:14:39;1.07;;;0.87;;
39256;SDS011;67272;48.066;11.038;2023-10-31T05:17:12;0.97;;;0.90;;
39256;SDS011;67272;48.066;11.038;2023-10-31T05:19:39;2.90;;;1.00;;
39256;SDS011;67272;48.066;11.038;2023-10-31T05:22:08;1.53;;;1.00;;
39256;SDS011;67272;48.066;11.038;2023-10-31T05:24:37;0.80;;;0.80;;
39256;SDS011;67272;48.066;11.038;2023-10-31T05:27:03;1.77;;;1.10;;
39256;SDS011;67272;48.066;11.038;2023-10-31T05:29:32;1.27;;;1.00;;
39256;SDS011;67272;48.066;11.038;2023-10-31T05:32:03;0.80;;;0.80;;
39256;SDS011;67272;48.066;11.038;2023-10-31T05:34:29;1.70;;;1.00;;
39256;SDS011;67272;48.066;11.038;2023-10-31T05:36:58;1.27;;;1.10;;
39256;SDS011;67272;48.066;11.038;2023-10-31T05:39:25;1.00;;;0.90;;
39256;SDS011;67272;48.066;11.038;2023-10-31T05:41:51;1.30;;;0.97;;
39256;SDS011;67272;48.066;11.038;2023-10-31T05:44:18;1.07;;;0.97;;
39256;SDS011;67272;48.066;11.038;2023-10-31T05:46:50;1.10;;;1.00;;
39256;SDS011;67272;48.066;11.038;2023-10-31T05:49:16;1.10;;;1.00;;
39256;SDS011;67272;48.066;11.038;2023-10-31T05:51:42;1.13;;;1.03;;
39256;SDS011;67272;48.066;11.038;2023-10-31T05:54:12;1.00;;;0.90;;
39256;SDS011;67272;48.066;11.038;2023-10-31T05:56:38;0.90;;;0.90;;
39256;SDS011;67272;48.066;11.038;2023-10-31T05:59:07;0.90;;;0.90;;
39256;SDS011;67272;48.066;11.038;2023-10-31T06:01:33;1.93;;;1.00;;
39256;SDS011;67272;48.066;11.038;2023-10-31T06:04:00;1.23;;;1.00;;
39256;SDS011;67272;48.066;11.038;2023-10-31T06:06:26;1.03;;;0.90;;
39256;SDS011;67272;48.066;11.038;2023-10-31T06:08:52;2.20;;;1.00;;
39256;SDS011;67272;48.066;11.038;2023-10-31T06:11:18;0.80;;;0.80;;
39256;SDS011;67272;48.066;11.038;2023-10-31T06:13:44;0.73;;;0.73;;
39256;SDS011;67272;48.066;11.038;2023-10-31T06:16:12;0.70;;;0.70;;
39256;SDS011;67272;48.066;11.038;2023-10-31T06:18:39;1.83;;;1.00;;
39256;SDS011;67272;48.066;11.038;2023-10-31T06:21:07;1.47;;;0.80;;
39256;SDS011;67272;48.066;11.038;2023-10-31T06:23:37;0.90;;;0.90;;
39256;SDS011;67272;48.066;11.038;2023-10-31T06:26:03;1.17;;;0.83;;
39256;SDS011;67272;48.066;11.038;2023-10-31T06:28:30;1.50;;;0.90;;
39256;SDS011;67272;48.066;11.038;2023-10-31T06:30:59;1.13;;;0.90;;
39256;SDS011;67272;48.066;11.038;2023-10-31T06:33:26;1.00;;;0.80;;
39256;SDS011;67272;48.066;11.038;2023-10-31T06:35:53;2.57;;;1.00;;
39256;SDS011;67272;48.066;11.038;2023-10-31T06:38:25;0.80;;;0.80;;
39256;SDS011;67272;48.066;11.038;2023-10-31T06:40:54;1.20;;;0.80;;
39256;SDS011;67272;48.066;11.038;2023-10-31T06:43:22;1.13;;;0.90;;
39256;SDS011;67272;48.066;11.038;2023-10-31T06:45:48;1.00;;;0.90;;
39256;SDS011;67272;48.066;11.038;2023-10-31T06:48:15;1.17;;;0.80;;
39256;SDS011;67272;48.066;11.038;2023-10-31T06:50:41;0.80;;;0.80;;
39256;SDS011;67272;48.066;11.038;2023-10-31T06:53:07;1.53;;;1.00;;
39256;SDS011;67272;48.066;11.038;2023-10-31T06:55:33;1.40;;;1.00;;
39256;SDS011;67272;48.066;11.038;2023-10-31T06:58:00;0.80;;;0.70;;
39256;SDS011;67272;48.066;11.038;2023-10-31T07:00:26;1.00;;;0.70;;
39256;SDS011;67272;48.066;11.038;2023-10-31T07:02:52;2.57;;;1.20;;
39256;SDS011;67272;48.066;11.038;2023-10-31T07:05:18;0.83;;;0.80;;
39256;SDS011;67272;48.066;11.038;2023-10-31T07:07:47;1.00;;;0.97;;
39256;SDS011;67272;48.066;11.038;2023-10-31T07:10:14;1.20;;;0.90;;
39256;SDS011;67272;48.066;11.038;2023-10-31T07:12:40;1.13;;;0.90;;
39256;SDS011;67272;48.066;11.038;2023-10-31T07:15:06;1.63;;;1.10;;
39256;SDS011;67272;48.066;11.038;2023-10-31T07:17:32;1.53;;;1.00;;
39256;SDS011;67272;48.066;11.038;2023-10-31T07:19:58;1.87;;;1.40;;
39256;SDS011;67272;48.066;11.038;2023-10-31T07:22:24;2.03;;;1.10;;
39256;SDS011;67272;48.066;11.038;2023-10-31T07:24:51;1.40;;;1.10;;
39256;SDS011;67272;48.066;11.038;2023-10-31T07:27:17;3.10;;;1.10;;
39256;SDS011;67272;48.066;11.038;2023-10-31T07:29:43;1.23;;;0.93;;
39256;SDS011;67272;48.066;11.038;2023-10-31T07:32:11;1.50;;;1.00;;
39256;SDS011;67272;48.066;11.038;2023-10-31T07:34:40;2.73;;;1.50;;
39256;SDS011;67272;48.066;11.038;2023-10-31T07:37:07;1.57;;;1.10;;
39256;SDS011;67272;48.066;11.038;2023-10-31T07:39:33;1.40;;;1.00;;
39256;SDS011;67272;48.066;11.038;2023-10-31T07:41:59;2.93;;;1.20;;
39256;SDS011;67272;48.066;11.038;2023-10-31T07:44:26;1.10;;;0.90;;
39256;SDS011;67272;48.066;11.038;2023-10-31T07:46:52;2.93;;;1.17;;
39256;SDS011;67272;48.066;11.038;2023-10-31T07:49:18;2.37;;;1.03;;
39256;SDS011;67272;48.066;11.038;2023-10-31T07:51:45;1.50;;;1.00;;
39256;SDS011;67272;48.066;11.038;2023-10-31T07:54:13;1.97;;;1.00;;
39256;SDS011;67272;48.066;11.038;2023-10-31T07:56:39;2.80;;;1.30;;
39256;SDS011;67272;48.066;11.038;2023-10-31T07:59:05;3.07;;;1.20;;
39256;SDS011;67272;48.066;11.038;2023-10-31T08:01:33;3.07;;;1.27;;
39256;SDS011;67272;48.066;11.038;2023-10-31T08:03:59;1.57;;;0.90;;
39256;SDS011;67272;48.066;11.038;2023-10-31T08:06:25;1.77;;;0.93;;
39256;SDS011;67272;48.066;11.038;2023-10-31T08:08:51;1.50;;;0.90;;
39256;SDS011;67272;48.066;11.038;2023-10-31T08:11:17;1.60;;;0.93;;
39256;SDS011;67272;48.066;11.038;2023-10-31T08:13:43;1.40;;;0.97;;
39256;SDS011;67272;48.066;11.038;2023-10-31T08:16:10;2.00;;;0.90;;
39256;SDS011;67272;48.066;11.038;2023-10-31T08:18:36;2.27;;;0.97;;
39256;SDS011;67272;48.066;11.038;2023-10-31T08:21:05;2.17;;;1.03;;
39256;SDS011;67272;48.066;11.038;2023-10-31T08:23:38;1.20;;;0.93;;
39256;SDS011;67272;48.066;11.038;2023-10-31T08:26:04;1.50;;;1.30;;
39256;SDS011;67272;48.066;11.038;2023-10-31T08:28:33;3.27;;;1.20;;
39256;SDS011;67272;48.066;11.038;2023-10-31T08:31:03;1.47;;;0.93;;
39256;SDS011;67272;48.066;11.038;2023-10-31T08:33:36;1.30;;;0.90;;
39256;SDS011;67272;48.066;11.038;2023-10-31T08:36:02;1.63;;;0.97;;
39256;SDS011;67272;48.066;11.038;2023-10-31T08:38:28;2.37;;;1.30;;
39256;SDS011;67272;48.066;11.038;2023-10-31T08:40:55;2.17;;;1.10;;
39256;SDS011;67272;48.066;11.038;2023-10-31T08:43:22;1.50;;;1.13;;
39256;SDS011;67272;48.066;11.038;2023-10-31T08:45:48;2.37;;;1.00;;
39256;SDS011;67272;48.066;11.038;2023-10-31T08:48:14;1.83;;;1.10;;
39256;SDS011;67272;48.066;11.038;2023-10-31T08:50:41;1.27;;;1.10;;
39256;SDS011;67272;48.066;11.038;2023-10-31T08:53:07;1.73;;;0.80;;
39256;SDS011;67272;48.066;11.038;2023-10-31T08:55:33;1.20;;;0.90;;
39256;SDS011;67272;48.066;11.038;2023-10-31T08:57:59;1.80;;;0.90;;
39256;SDS011;67272;48.066;11.038;2023-10-31T09:00:25;2.00;;;0.80;;
39256;SDS011;67272;48.066;11.038;2023-10-31T09:02:53;1.77;;;1.00;;
39256;SDS011;67272;48.066;11.038;2023-10-31T09:05:20;1.47;;;1.03;;
39256;SDS011;67272;48.066;11.038;2023-10-31T09:07:46;0.90;;;0.80;;
39256;SDS011;67272;48.066;11.038;2023-10-31T09:10:12;2.67;;;1.00;;
39256;SDS011;67272;48.066;11.038;2023-10-31T09:12:38;1.33;;;0.87;;
39256;SDS011;67272;48.066;11.038;2023-10-31T09:15:04;1.43;;;0.83;;
39256;SDS011;67272;48.066;11.038;2023-10-31T09:17:34;2.17;;;1.10;;
39256;SDS011;67272;48.066;11.038;2023-10-31T09:20:00;3.30;;;0.90;;
39256;SDS011;67272;48.066;11.038;2023-10-31T09:22:27;1.20;;;0.70;;
39256;SDS011;67272;48.066;11.038;2023-10-31T09:24:53;2.83;;;1.10;;
39256;SDS011;67272;48.066;11.038;2023-10-31T09:27:22;2.10;;;1.00;;
39256;SDS011;67272;48.066;11.038;2023-10-31T09:29:48;1.47;;;1.10;;
39256;SDS011;67272;48.066;11.038;2023-10-31T09:32:20;2.43;;;1.10;;
39256;SDS011;67272;48.066;11.038;2023-10-31T09:34:47;1.70;;;0.97;;
39256;SDS011;67272;48.066;11.038;2023-10-31T09:37:14;1.80;;;0.90;;
39256;SDS011;67272;48.066;11.038;2023-10-31T09:39:40;4.00;;;1.40;;
39256;SDS011;67272;48.066;11.038;2023-10-31T09:42:06;4.07;;;0.90;;
39256;SDS011;67272;48.066;11.038;2023-10-31T09:44:35;1.70;;;1.03;;
39256;SDS011;67272;48.066;11.038;2023-10-31T09:47:02;2.37;;;1.27;;
39256;SDS011;67272;48.066;11.038;2023-10-31T09:49:28;2.93;;;0.97;;
39256;SDS011;67272;48.066;11.038;2023-10-31T09:51:57;2.70;;;1.30;;
39256;SDS011;67272;48.066;11.038;2023-10-31T09:54:24;2.77;;;1.07;;
39256;SDS011;67272;48.066;11.038;2023-10-31T09:56:52;1.80;;;1.00;;
39256;SDS011;67272;48.066;11.038;2023-10-31T09:59:18;3.03;;;1.10;;
39256;SDS011;67272;48.066;11.038;2023-10-31T10:01:44;3.23;;;1.20;;
39256;SDS011;67272;48.066;11.038;2023-10-31T10:04:13;1.95;;;0.75;;
39256;SDS011;67272;48.066;11.038;2023-10-31T10:06:52;1.42;;;0.80;;
39256;SDS011;67272;48.066;11.038;2023-10-31T10:09:18;1.30;;;1.20;;
39256;SDS011;67272;48.066;11.038;2023-10-31T10:11:44;2.10;;;1.05;;
39256;SDS011;67272;48.066;11.038;2023-10-31T10:14:16;2.50;;;1.15;;
39256;SDS011;67272;48.066;11.038;2023-10-31T10:16:42;1.17;;;0.87;;
39256;SDS011;67272;48.066;11.038;2023-10-31T10:21:48;1.20;;;1.10;;
39256;SDS011;67272;48.066;11.038;2023-10-31T10:24:15;1.20;;;1.10;;
39256;SDS011;67272;48.066;11.038;2023-10-31T10:26:42;1.80;;;1.13;;
39256;SDS011;67272;48.066;11.038;2023-10-31T10:29:08;3.90;;;1.00;;
39256;SDS011;67272;48.066;11.038;2023-10-31T10:31:34;2.15;;;1.40;;
39256;SDS011;67272;48.066;11.038;2023-10-31T10:34:00;1.58;;;1.08;;
39256;SDS011;67272;48.066;11.038;2023-10-31T10:36:31;1.05;;;0.95;;
39256;SDS011;67272;48.066;11.038;2023-10-31T10:39:01;2.45;;;1.00;;
39256;SDS011;67272;48.066;11.038;2023-10-31T10:41:35;2.60;;;0.80;;
39256;SDS011;67272;48.066;11.038;2023-10-31T10:44:05;2.53;;;0.80;;
39256;SDS011;67272;48.066;11.038;2023-10-31T10:46:35;1.17;;;0.98;;
39256;SDS011;67272;48.066;11.038;2023-10-31T10:49:06;1.38;;;0.90;;
39256;SDS011;67272;48.066;11.038;2023-10-31T10:51:40;1.88;;;1.00;;
39256;SDS011;67272;48.066;11.038;2023-10-31T10:54:18;1.55;;;0.80;;
39256;SDS011;67272;48.066;11.038;2023-10-31T10:56:55;2.10;;;0.90;;
39256;SDS011;67272;48.066;11.038;2023-10-31T10:59:30;1.10;;;0.80;;
39256;SDS011;67272;48.066;11.038;2023-10-31T11:02:02;2.90;;;0.90;;
39256;SDS011;67272;48.066;11.038;2023-10-31T11:04:30;1.15;;;0.80;;
39256;SDS011;67272;48.066;11.038;2023-10-31T11:10:02;1.20;;;0.95;;
39256;SDS011;67272;48.066;11.038;2023-10-31T11:12:30;1.77;;;0.82;;
39256;SDS011;67272;48.066;11.038;2023-10-31T11:14:57;1.45;;;0.90;;
39256;SDS011;67272;48.066;11.038;2023-10-31T11:17:24;1.70;;;0.80;;
39256;SDS011;67272;48.066;11.038;2023-10-31T11:19:51;2.10;;;0.80;;
39256;SDS011;67272;48.066;11.038;2023-10-31T11:22:18;1.13;;;0.80;;
39256;SDS011;67272;48.066;11.038;2023-10-31T11:24:45;0.80;;;0.80;;
39256;SDS011;67272;48.066;11.038;2023-10-31T11:27:11;1.10;;;0.90;;
39256;SDS011;67272;48.066;11.038;2023-10-31T11:29:37;3.35;;;1.13;;
39256;SDS011;67272;48.066;11.038;2023-10-31T11:32:10;1.30;;;0.90;;
39256;SDS011;67272;48.066;11.038;2023-10-31T11:34:37;1.23;;;0.80;;
39256;SDS011;67272;48.066;11.038;2023-10-31T11:42:38;1.67;;;0.90;;
39256;SDS011;67272;48.066;11.038;2023-10-31T11:45:04;1.67;;;0.80;;
39256;SDS011;67272;48.066;11.038;2023-10-31T11:47:49;1.73;;;0.95;;
39256;SDS011;67272;48.066;11.038;2023-10-31T11:50:16;0.88;;;0.77;;
39256;SDS011;67272;48.066;11.038;2023-10-31T11:52:43;2.47;;;1.15;;
39256;SDS011;67272;48.066;11.038;2023-10-31T11:55:10;1.40;;;1.30;;
39256;SDS011;67272;48.066;11.038;2023-10-31T11:57:36;2.25;;;1.45;;
39256;SDS011;67272;48.066;11.038;2023-10-31T12:00:03;2.30;;;0.90;;
39256;SDS011;67272;48.066;11.038;2023-10-31T12:02:37;1.50;;;1.40;;
39256;SDS011;67272;48.066;11.038;2023-10-31T12:05:10;2.47;;;1.80;;
39256;SDS011;67272;48.066;11.038;2023-10-31T12:07:41;1.45;;;0.80;;
39256;SDS011;67272;48.066;11.038;2023-10-31T12:10:07;1.30;;;1.20;;
39256;SDS011;67272;48.066;11.038;2023-10-31T12:12:37;4.20;;;1.95;;
39256;SDS011;67272;48.066;11.038;2023-10-31T12:15:07;1.90;;;1.13;;
39256;SDS011;67272;48.066;11.038;2023-10-31T12:17:33;2.60;;;0.70;;
39256;SDS011;67272;48.066;11.038;2023-10-31T12:20:06;1.90;;;0.70;;
39256;SDS011;67272;48.066;11.038;2023-10-31T12:22:33;3.83;;;2.42;;
39256;SDS011;67272;48.066;11.038;2023-10-31T12:25:03;5.68;;;1.00;;
39256;SDS011;67272;48.066;11.038;2023-10-31T12:27:42;1.63;;;1.50;;
39256;SDS011;67272;48.066;11.038;2023-10-31T12:30:21;1.05;;;0.90;;
39256;SDS011;67272;48.066;11.038;2023-10-31T12:32:56;0.68;;;0.68;;
39256;SDS011;67272;48.066;11.038;2023-10-31T12:35:23;1.17;;;0.80;;
39256;SDS011;67272;48.066;11.038;2023-10-31T12:37:49;1.40;;;0.68;;
39256;SDS011;67272;48.066;11.038;2023-10-31T12:40:20;1.00;;;0.80;;
39256;SDS011;67272;48.066;11.038;2023-10-31T12:42:47;1.10;;;0.80;;
39256;SDS011;67272;48.066;11.038;2023-10-31T12:45:14;1.38;;;0.60;;
39256;SDS011;67272;48.066;11.038;2023-10-31T12:47:40;1.42;;;0.70;;
39256;SDS011;67272;48.066;11.038;2023-10-31T12:55:37;0.70;;;0.63;;
39256;SDS011;67272;48.066;11.038;2023-10-31T12:58:03;1.25;;;0.80;;
39256;SDS011;67272;48.066;11.038;2023-10-31T13:00:31;0.77;;;0.77;;
39256;SDS011;67272;48.066;11.038;2023-10-31T13:03:01;0.93;;;0.68;;
39256;SDS011;67272;48.066;11.038;2023-10-31T13:05:28;0.75;;;0.70;;
39256;SDS011;67272;48.066;11.038;2023-10-31T13:07:55;0.70;;;0.70;;
39256;SDS011;67272;48.066;11.038;2023-10-31T13:10:22;0.88;;;0.85;;
39256;SDS011;67272;48.066;11.038;2023-10-31T13:12:50;1.25;;;0.90;;
39256;SDS011;67272;48.066;11.038;2023-10-31T13:15:16;0.63;;;0.63;;
39256;SDS011;67272;48.066;11.038;2023-10-31T13:17:47;1.60;;;0.90;;
39256;SDS011;67272;48.066;11.038;2023-10-31T13:20:15;0.80;;;0.80;;
39256;SDS011;67272;48.066;11.038;2023-10-31T13:22:41;1.30;;;0.93;;
39256;SDS011;67272;48.066;11.038;2023-10-31T13:25:09;1.52;;;0.80;;
39256;SDS011;67272;48.066;11.038;2023-10-31T13:27:40;1.15;;;1.02;;
39256;SDS011;67272;48.066;11.038;2023-10-31T13:30:08;1.15;;;0.90;;
39256;SDS011;67272;48.066;11.038;2023-10-31T13:32:39;1.02;;;1.00;;
39256;SDS011;67272;48.066;11.038;2023-10-31T13:35:05;1.15;;;0.82;;
39256;SDS011;67272;48.066;11.038;2023-10-31T13:37:34;1.90;;;1.00;;
39256;SDS011;67272;48.066;11.038;2023-10-31T13:40:01;1.40;;;0.90;;
39256;SDS011;67272;48.066;11.038;2023-10-31T13:42:27;1.23;;;0.90;;
39256;SDS011;67272;48.066;11.038;2023-10-31T13:44:53;1.97;;;0.90;;
39256;SDS011;67272;48.066;11.038;2023-10-31T13:47:19;1.25;;;0.98;;
39256;SDS011;67272;48.066;11.038;2023-10-31T13:49:46;2.63;;;1.25;;
39256;SDS011;67272;48.066;11.038;2023-10-31T13:52:12;2.55;;;1.15;;
39256;SDS011;67272;48.066;11.038;2023-10-31T13:54:38;1.45;;;1.02;;
39256;SDS011;67272;48.066;11.038;2023-10-31T13:57:05;1.65;;;1.08;;
39256;SDS011;67272;48.066;11.038;2023-10-31T13:59:34;1.67;;;1.10;;
39256;SDS011;67272;48.066;11.038;2023-10-31T14:02:00;2.58;;;1.25;;
39256;SDS011;67272;48.066;11.038;2023-10-31T14:04:27;1.27;;;0.90;;
39256;SDS011;67272;48.066;11.038;2023-10-31T14:06:54;1.23;;;1.00;;
39256;SDS011;67272;48.066;11.038;2023-10-31T14:09:20;1.88;;;1.13;;
39256;SDS011;67272;48.066;11.038;2023-10-31T14:11:46;1.30;;;1.20;;
39256;SDS011;67272;48.066;11.038;2023-10-31T14:14:13;1.55;;;0.93;;
39256;SDS011;67272;48.066;11.038;2023-10-31T14:16:39;1.95;;;1.25;;
39256;SDS011;67272;48.066;11.038;2023-10-31T14:19:06;1.35;;;1.10;;
39256;SDS011;67272;48.066;11.038;2023-10-31T14:21:33;1.75;;;1.40;;
39256;SDS011;67272;48.066;11.038;2023-10-31T14:23:59;1.13;;;1.02;;
39256;SDS011;67272;48.066;11.038;2023-10-31T14:26:26;1.90;;;1.15;;
39256;SDS011;67272;48.066;11.038;2023-10-31T14:28:53;1.52;;;1.10;;
39256;SDS011;67272;48.066;11.038;2023-10-31T14:31:22;1.50;;;1.27;;
39256;SDS011;67272;48.066;11.038;2023-10-31T14:33:48;2.38;;;1.63;;
39256;SDS011;67272;48.066;11.038;2023-10-31T14:36:14;1.55;;;1.35;;
39256;SDS011;67272;48.066;11.038;2023-10-31T14:38:40;1.70;;;1.20;;
39256;SDS011;67272;48.066;11.038;2023-10-31T14:41:07;1.77;;;1.42;;
39256;SDS011;67272;48.066;11.038;2023-10-31T14:43:34;3.42;;;1.45;;
39256;SDS011;67272;48.066;11.038;2023-10-31T14:46:00;2.15;;;1.25;;
39256;SDS011;67272;48.066;11.038;2023-10-31T14:48:27;4.00;;;1.88;;
39256;SDS011;67272;48.066;11.038;2023-10-31T14:50:54;1.27;;;1.10;;
39256;SDS011;67272;48.066;11.038;2023-10-31T14:53:22;1.30;;;1.20;;